Time;durP1;ratioP1;P1;durP2;ratioP2;P2;SDS_P1;SDS_P2;PMS_P1;PMS_P2;Temp;Humidity;BMP_temperature;BMP_pressure;BME280_temperature;BME280_humidity;BME280_pressure;Samples;Min_cycle;Max_cycle;Signal;HPM_P1;HPM_P2
2024/03/30 00:01:43;;;;;;;6.93;3.90;;;;;;;12.14;96.09;96378.38;4066489;29;20675;-82
2024/03/30 00:03:47;;;;;;;5.40;3.63;;;;;;;12.13;94.53;96381.97;4063858;29;20698;-81
2024/03/30 00:05:58;;;;;;;10.73;4.53;;;;;;;12.12;96.69;96375.13;4077840;29;21053;-81
2024/03/30 00:08:00;;;;;;;6.90;3.70;;;;;;;12.09;96.00;96380.66;4049815;29;20633;-81
2024/03/30 00:10:02;;;;;;;9.60;4.53;;;;;;;12.05;96.80;96376.69;4085042;28;20630;-82
2024/03/30 00:12:05;;;;;;;9.23;4.00;;;;;;;12.04;96.69;96374.25;4050987;29;21027;-81
2024/03/30 00:14:07;;;;;;;8.73;3.90;;;;;;;12.01;96.73;96375.41;4049191;29;21601;-82
2024/03/30 00:16:11;;;;;;;10.43;4.17;;;;;;;11.99;95.63;96368.69;4059031;29;21202;-82
2024/03/30 00:18:12;;;;;;;5.53;3.57;;;;;;;11.95;95.66;96369.94;4093765;28;20625;-82
2024/03/30 00:20:15;;;;;;;8.30;4.17;;;;;;;11.93;94.31;96364.88;4060200;29;20627;-79
2024/03/30 00:22:16;;;;;;;7.73;4.00;;;;;;;11.93;94.38;96370.09;4064752;29;20627;-80
2024/03/30 00:24:18;;;;;;;6.37;3.90;;;;;;;11.93;95.81;96371.91;4071094;29;20626;-80
2024/03/30 00:26:19;;;;;;;7.83;3.93;;;;;;;11.91;95.64;96366.03;4066283;29;20660;-82
2024/03/30 00:28:21;;;;;;;17.07;4.30;;;;;;;11.88;95.76;96367.16;4083639;29;20685;-82
2024/03/30 00:30:24;;;;;;;6.50;4.10;;;;;;;11.87;95.16;96375.94;4060132;29;20625;-82
2024/03/30 00:32:27;;;;;;;7.33;4.30;;;;;;;11.87;95.33;96372.53;4057293;29;21319;-82
2024/03/30 00:34:28;;;;;;;8.13;4.43;;;;;;;11.84;95.96;96371.03;4071969;29;20663;-82
2024/03/30 00:36:31;;;;;;;6.53;4.47;;;;;;;11.82;95.63;96369.56;4080971;29;20996;-82
2024/03/30 00:38:33;;;;;;;11.63;3.70;;;;;;;11.81;96.73;96376.56;4052910;29;21236;-82
2024/03/30 00:40:35;;;;;;;7.60;4.23;;;;;;;11.79;95.47;96375.09;4085021;29;20610;-82
2024/03/30 00:42:36;;;;;;;13.10;4.37;;;;;;;11.78;94.51;96376.06;4040352;29;20624;-82
2024/03/30 00:44:39;;;;;;;6.20;3.60;;;;;;;11.76;96.60;96378.00;4065694;29;20651;-82
2024/03/30 00:46:41;;;;;;;7.20;3.67;;;;;;;11.76;96.12;96375.41;4070521;29;21009;-82
2024/03/30 00:48:44;;;;;;;9.30;5.10;;;;;;;11.73;95.08;96369.66;4051843;29;20632;-82
2024/03/30 00:50:46;;;;;;;11.80;3.33;;;;;;;11.72;95.43;96371.44;4067864;29;20698;-82
2024/03/30 00:52:48;;;;;;;7.40;3.40;;;;;;;11.70;95.11;96369.94;4071320;29;21093;-82
2024/03/30 00:54:49;;;;;;;7.87;4.20;;;;;;;11.69;95.67;96376.16;4070566;29;21070;-82
2024/03/30 00:56:51;;;;;;;9.80;3.73;;;;;;;11.69;95.09;96370.94;4066131;29;20658;-82
2024/03/30 00:58:53;;;;;;;9.43;3.60;;;;;;;11.67;96.38;96362.47;4068180;29;21112;-81
2024/03/30 01:00:56;;;;;;;10.10;4.10;;;;;;;11.66;96.30;96364.22;4063832;29;20635;-82
2024/03/30 01:02:58;;;;;;;9.30;3.87;;;;;;;11.66;96.57;96366.03;4083939;29;20619;-82
2024/03/30 01:05:11;;;;;;;6.67;3.90;;;;;;;11.64;95.58;96362.75;4067794;29;21280;-82
2024/03/30 01:07:13;;;;;;;10.53;4.37;;;;;;;11.65;95.09;96361.78;4077817;29;21256;-83
2024/03/30 01:09:15;;;;;;;6.90;3.93;;;;;;;11.64;97.12;96367.97;4079315;29;20633;-81
2024/03/30 01:11:17;;;;;;;9.30;4.10;;;;;;;11.62;96.68;96360.31;4053734;29;20684;-82
2024/03/30 01:13:21;;;;;;;9.03;3.90;;;;;;;11.61;96.51;96358.66;4094315;28;20630;-82
2024/03/30 01:15:22;;;;;;;6.83;3.73;;;;;;;11.57;97.72;96359.91;4052285;29;21109;-82
2024/03/30 01:17:25;;;;;;;11.67;4.10;;;;;;;11.56;96.87;96357.47;4069869;28;20631;-82
2024/03/30 01:19:27;;;;;;;11.00;3.73;;;;;;;11.54;96.18;96356.81;4028392;29;21275;-82
2024/03/30 01:21:32;;;;;;;10.40;4.30;;;;;;;11.51;95.34;96357.91;4094329;28;20630;-82
2024/03/30 01:23:35;;;;;;;15.90;4.57;;;;;;;11.50;96.77;96352.84;4062217;29;20631;-82
2024/03/30 01:25:38;;;;;;;12.20;3.97;;;;;;;11.45;96.42;96350.66;4099963;28;20617;-82
2024/03/30 01:27:40;;;;;;;11.97;4.13;;;;;;;11.44;97.21;96346.44;4094065;28;20768;-82
2024/03/30 01:29:43;;;;;;;9.87;4.03;;;;;;;11.44;96.41;96356.88;4064949;29;21236;-82
2024/03/30 01:31:45;;;;;;;16.40;4.70;;;;;;;11.42;96.44;96358.81;4083955;29;21242;-82
2024/03/30 01:33:48;;;;;;;16.53;4.70;;;;;;;11.38;96.51;96356.66;4081996;29;21233;-81
2024/03/30 01:35:50;;;;;;;12.70;3.80;;;;;;;11.34;96.46;96352.72;4090565;28;20629;-82
2024/03/30 01:37:52;;;;;;;12.13;4.30;;;;;;;11.33;96.44;96353.69;4068245;29;21169;-83
2024/03/30 01:39:57;;;;;;;11.10;3.80;;;;;;;11.31;97.19;96350.41;4079888;29;20630;-82
2024/03/30 01:41:58;;;;;;;13.10;4.03;;;;;;;11.23;95.58;96342.53;4061754;29;20624;-82
2024/03/30 01:44:01;;;;;;;8.80;3.73;;;;;;;11.20;97.48;96344.59;4066773;29;20630;-82
2024/03/30 01:46:02;;;;;;;10.50;3.70;;;;;;;11.19;95.69;96345.59;4069038;29;20627;-83
2024/03/30 01:48:06;;;;;;;13.10;4.10;;;;;;;11.15;97.22;96334.63;4064214;29;20619;-82
2024/03/30 01:50:08;;;;;;;17.73;5.07;;;;;;;11.09;96.70;96345.66;4083072;29;20629;-82
2024/03/30 01:52:10;;;;;;;13.70;4.40;;;;;;;11.09;97.46;96343.03;4065122;29;20631;-82
2024/03/30 01:54:13;;;;;;;19.37;5.50;;;;;;;11.07;97.85;96342.38;4060907;29;20662;-82
2024/03/30 01:56:15;;;;;;;14.33;4.40;;;;;;;11.07;97.98;96339.78;4077637;29;20641;-81
2024/03/30 01:58:21;;;;;;;13.27;4.70;;;;;;;11.04;97.04;96337.47;4059628;29;20630;-82
2024/03/30 02:00:23;;;;;;;21.30;5.73;;;;;;;11.02;96.98;96344.63;4078209;29;20618;-82
2024/03/30 02:02:31;;;;;;;15.33;4.60;;;;;;;11.01;96.52;96334.34;4077873;28;20693;-82
2024/03/30 02:04:34;;;;;;;13.57;4.50;;;;;;;10.96;96.84;96340.03;4058833;29;20636;-82
2024/03/30 02:06:37;;;;;;;17.13;4.47;;;;;;;10.94;97.05;96341.13;4058912;29;20623;-82
2024/03/30 02:08:39;;;;;;;19.43;4.47;;;;;;;10.92;96.43;96333.44;4074986;29;20610;-82
2024/03/30 02:10:42;;;;;;;18.13;4.47;;;;;;;10.87;97.41;96327.88;4066663;29;20627;-82
2024/03/30 02:12:44;;;;;;;19.87;5.00;;;;;;;10.85;96.41;96332.44;4063968;29;20681;-82
2024/03/30 02:14:48;;;;;;;23.07;4.03;;;;;;;10.85;97.59;96332.44;4054082;29;21073;-81
2024/03/30 02:16:50;;;;;;;15.30;4.60;;;;;;;10.85;97.03;96332.44;4082820;29;20610;-82
2024/03/30 02:18:51;;;;;;;16.33;5.67;;;;;;;10.86;97.01;96328.03;4066937;29;20639;-82
2024/03/30 02:20:53;;;;;;;20.07;4.70;;;;;;;10.85;98.02;96328.97;4052250;29;20688;-82
2024/03/30 02:22:55;;;;;;;20.20;5.00;;;;;;;10.85;96.29;96331.59;4073362;28;21046;-82
2024/03/30 02:24:58;;;;;;;19.00;4.70;;;;;;;10.84;96.49;96324.75;4048657;29;20636;-82
2024/03/30 02:27:00;;;;;;;16.30;4.80;;;;;;;10.83;96.80;96320.50;4079732;29;20630;-82
2024/03/30 02:29:06;;;;;;;22.33;5.30;;;;;;;10.81;97.47;96314.63;4084999;28;20689;-82
2024/03/30 02:31:07;;;;;;;15.23;4.20;;;;;;;10.80;97.42;96313.78;4061025;29;21352;-82
2024/03/30 02:33:09;;;;;;;20.07;6.43;;;;;;;10.80;96.59;96313.78;4083563;29;20653;-81
2024/03/30 02:35:10;;;;;;;23.10;5.97;;;;;;;10.79;95.82;96313.94;4066837;29;20655;-82
2024/03/30 02:37:13;;;;;;;17.33;5.30;;;;;;;10.79;96.33;96313.94;4061521;29;21223;-82
2024/03/30 02:39:14;;;;;;;22.83;5.30;;;;;;;10.77;96.13;96317.69;4072877;29;20639;-82
2024/03/30 02:41:18;;;;;;;17.27;4.67;;;;;;;10.74;95.78;96316.19;4057630;29;20638;-83
2024/03/30 02:43:19;;;;;;;24.70;5.33;;;;;;;10.72;96.82;96315.50;4090257;28;20609;-82
2024/03/30 02:45:21;;;;;;;25.53;6.07;;;;;;;10.71;96.57;96315.66;4064356;29;20623;-83
2024/03/30 02:47:23;;;;;;;27.23;6.00;;;;;;;10.68;95.52;96316.78;4065873;29;21012;-82
2024/03/30 02:49:25;;;;;;;27.13;5.90;;;;;;;10.66;96.17;96315.28;4036474;29;20637;-82
2024/03/30 02:51:26;;;;;;;22.00;5.50;;;;;;;10.64;95.70;96322.44;4080955;28;20626;-82
2024/03/30 02:53:29;;;;;;;29.47;6.27;;;;;;;10.59;96.26;96316.84;4067835;29;20665;-82
2024/03/30 02:55:30;;;;;;;23.43;6.60;;;;;;;10.59;97.26;96320.25;4067055;28;21752;-82
2024/03/30 02:57:35;;;;;;;19.20;6.07;;;;;;;10.60;96.78;96327.13;4062471;29;20639;-82
2024/03/30 02:59:36;;;;;;;24.73;6.80;;;;;;;10.55;96.50;96316.31;4089174;28;20629;-82
2024/03/30 03:01:38;;;;;;;28.13;6.60;;;;;;;10.55;97.59;96313.69;4076916;29;20614;-82
2024/03/30 03:03:40;;;;;;;18.33;5.13;;;;;;;10.54;96.69;96313.84;4075602;29;20630;-81
2024/03/30 03:05:43;;;;;;;25.70;6.50;;;;;;;10.54;97.23;96308.63;4066925;29;20638;-82
2024/03/30 03:07:44;;;;;;;29.30;6.37;;;;;;;10.53;97.09;96307.00;4062265;29;20634;-82
2024/03/30 03:09:46;;;;;;;25.97;4.93;;;;;;;10.54;96.22;96311.25;4064071;29;20623;-82
2024/03/30 03:11:48;;;;;;;32.10;7.30;;;;;;;10.53;96.21;96313.03;4077042;29;20627;-82
2024/03/30 03:13:51;;;;;;;25.73;5.90;;;;;;;10.53;96.85;96313.03;4050597;29;20636;-82
2024/03/30 03:15:53;;;;;;;24.43;5.83;;;;;;;10.53;96.94;96314.84;4052833;29;20714;-82
2024/03/30 03:17:55;;;;;;;34.00;6.27;;;;;;;10.54;97.45;96311.25;4082302;28;20626;-82
2024/03/30 03:19:56;;;;;;;23.13;5.93;;;;;;;10.55;96.20;96315.50;4051698;29;21197;-82
2024/03/30 03:22:00;;;;;;;18.83;5.90;;;;;;;10.53;97.35;96307.00;4075333;28;20615;-82
2024/03/30 03:24:01;;;;;;;33.23;6.50;;;;;;;10.52;96.60;96306.19;4085923;28;20622;-82
2024/03/30 03:26:03;;;;;;;27.90;7.37;;;;;;;10.52;96.79;96302.75;4057863;29;21371;-82
2024/03/30 03:28:05;;;;;;;30.27;6.60;;;;;;;10.51;97.06;96306.34;4060724;28;20664;-81
2024/03/30 03:30:09;;;;;;;28.13;6.60;;;;;;;10.52;96.32;96302.75;4066185;29;21227;-82
2024/03/30 03:32:11;;;;;;;25.93;6.00;;;;;;;10.51;96.66;96298.53;4079192;29;20661;-82
2024/03/30 03:34:12;;;;;;;32.17;7.33;;;;;;;10.52;97.54;96307.97;4080967;29;20688;-82
2024/03/30 03:36:14;;;;;;;31.27;6.93;;;;;;;10.53;97.75;96309.63;4038154;29;21057;-83
2024/03/30 03:38:16;;;;;;;29.30;6.43;;;;;;;10.53;97.15;96305.22;4059838;29;20701;-82
2024/03/30 03:40:18;;;;;;;30.57;6.33;;;;;;;10.55;97.17;96299.84;4048521;29;20629;-83
2024/03/30 03:42:19;;;;;;;35.13;7.40;;;;;;;10.53;96.88;96288.78;4049390;29;20689;-82
2024/03/30 03:44:21;;;;;;;42.37;6.87;;;;;;;10.52;96.63;96297.53;4077594;28;20622;-82
2024/03/30 03:46:24;;;;;;;25.17;6.50;;;;;;;10.53;97.82;96292.19;4071381;29;20656;-83
2024/03/30 03:48:26;;;;;;;28.23;7.10;;;;;;;10.56;96.70;96289.28;4056927;29;21062;-82
2024/03/30 03:50:28;;;;;;;30.73;6.23;;;;;;;10.56;96.53;96293.69;4059359;29;20619;-82
2024/03/30 03:52:30;;;;;;;27.23;6.97;;;;;;;10.54;96.69;96287.78;4048904;29;20632;-82
2024/03/30 03:54:31;;;;;;;39.03;7.20;;;;;;;10.54;96.20;96282.56;4046231;29;20647;-81
2024/03/30 03:56:33;;;;;;;35.50;7.10;;;;;;;10.51;96.46;96275.06;4078067;28;20673;-82
2024/03/30 03:58:34;;;;;;;31.57;6.93;;;;;;;10.49;96.41;96274.38;4049096;29;20620;-82
2024/03/30 04:00:37;;;;;;;31.80;6.80;;;;;;;10.45;97.24;96262.63;4065502;29;20695;-82
2024/03/30 04:02:40;;;;;;;33.57;6.43;;;;;;;10.42;96.44;96261.13;4046995;29;20620;-82
2024/03/30 04:04:42;;;;;;;36.90;6.97;;;;;;;10.42;96.59;96265.53;4093377;28;20617;-82
2024/03/30 04:06:43;;;;;;;37.53;7.77;;;;;;;10.41;97.07;96264.69;4078699;29;20993;-81
2024/03/30 04:08:47;;;;;;;26.10;6.35;;;;;;;10.41;97.34;96264.69;4084583;28;21012;-83
2024/03/30 04:10:48;;;;;;;31.33;7.57;;;;;;;10.41;97.33;96275.13;4066312;29;20727;-82
2024/03/30 04:12:50;;;;;;;42.20;9.00;;;;;;;10.39;96.62;96271.06;4074070;28;20678;-82
2024/03/30 04:14:51;;;;;;;29.70;6.63;;;;;;;10.36;97.66;96273.94;4063828;29;20703;-82
2024/03/30 04:16:54;;;;;;;39.43;8.00;;;;;;;10.37;97.27;96286.00;4076073;28;20671;-82
2024/03/30 04:18:56;;;;;;;40.83;7.50;;;;;;;10.36;97.44;96284.38;4064965;29;20663;-82
2024/03/30 04:20:59;;;;;;;33.43;8.40;;;;;;;10.35;96.90;96295.75;4082096;28;20734;-82
2024/03/30 04:23:01;;;;;;;29.50;6.73;;;;;;;10.31;96.84;96286.59;4044764;29;21262;-82
2024/03/30 04:25:04;;;;;;;39.70;7.20;;;;;;;10.32;96.75;96286.44;4089483;28;20629;-83
2024/03/30 04:27:05;;;;;;;38.77;7.10;;;;;;;10.30;97.02;96289.34;4058074;29;20699;-82
2024/03/30 04:29:08;;;;;;;36.43;7.10;;;;;;;10.28;96.88;96292.09;4073885;29;20643;-82
2024/03/30 04:31:12;;;;;;;37.63;8.60;;;;;;;10.30;96.76;96292.78;4032362;29;20757;-82
2024/03/30 04:33:17;;;;;;;33.60;6.30;;;;;;;10.29;96.60;96301.56;4071373;28;20666;-82
2024/03/30 04:35:20;;;;;;;35.53;7.63;;;;;;;10.26;96.92;96298.44;4059660;29;21235;-82
2024/03/30 04:37:23;;;;;;;26.17;6.73;;;;;;;10.24;96.56;96306.38;4050546;29;20632;-82
2024/03/30 04:39:24;;;;;;;33.37;7.33;;;;;;;10.22;96.31;96303.09;4064103;29;20627;-82
2024/03/30 04:41:26;;;;;;;41.07;7.53;;;;;;;10.21;96.28;96300.63;4035056;29;20629;-83
2024/03/30 04:43:28;;;;;;;40.63;7.00;;;;;;;10.21;96.46;96298.03;4047715;29;20633;-82
2024/03/30 04:45:30;;;;;;;34.27;8.23;;;;;;;10.22;96.33;96299.69;4062129;29;20627;-82
2024/03/30 04:47:32;;;;;;;43.77;8.50;;;;;;;10.21;96.34;96309.28;4076250;29;20636;-82
2024/03/30 04:49:35;;;;;;;33.97;8.40;;;;;;;10.19;95.64;96300.78;4080152;29;20638;-82
2024/03/30 04:51:38;;;;;;;29.53;6.83;;;;;;;10.18;95.84;96301.75;4057645;29;20675;-83
2024/03/30 04:53:40;;;;;;;35.80;7.90;;;;;;;10.18;95.92;96304.38;4063316;29;21032;-82
2024/03/30 04:55:49;;;;;;;39.93;8.33;;;;;;;10.18;95.92;96313.94;4051062;29;21019;-82
2024/03/30 04:57:50;;;;;;;40.63;7.63;;;;;;;10.18;96.25;96319.16;4050402;29;20631;-82
2024/03/30 04:59:52;;;;;;;32.40;7.60;;;;;;;10.17;95.60;96312.31;4052060;29;20641;-82
2024/03/30 05:01:54;;;;;;;31.53;7.00;;;;;;;10.12;95.40;96322.38;4067253;29;20685;-82
2024/03/30 05:03:57;;;;;;;30.10;5.63;;;;;;;10.11;95.90;96326.75;4052951;29;20624;-82
2024/03/30 05:05:58;;;;;;;32.37;6.07;;;;;;;10.09;96.28;96322.66;4053106;29;20627;-82
2024/03/30 05:08:01;;;;;;;30.97;7.70;;;;;;;10.08;96.11;96331.44;4064207;29;20623;-82
2024/03/30 05:10:04;;;;;;;33.57;7.27;;;;;;;10.07;96.10;96333.22;4084629;29;20789;-83
2024/03/30 05:12:07;;;;;;;27.10;6.87;;;;;;;10.07;95.74;96329.78;4052405;29;21257;-82
2024/03/30 05:14:08;;;;;;;30.83;7.00;;;;;;;10.08;95.62;96323.63;4051741;29;21948;-82
2024/03/30 05:16:12;;;;;;;34.70;6.50;;;;;;;10.07;95.27;96321.97;4068221;29;21232;-82
2024/03/30 05:18:14;;;;;;;31.90;6.43;;;;;;;10.07;95.95;96320.19;4068236;29;20686;-82
2024/03/30 05:22:36;;;;;;;32.00;7.30;;;;;;;10.07;95.17;96329.78;4083144;29;21015;-81
2024/03/30 05:24:39;;;;;;;34.80;6.93;;;;;;;10.07;94.96;96319.38;4052927;29;20616;-82
2024/03/30 05:26:41;;;;;;;35.23;6.50;;;;;;;10.08;95.46;96321.81;4063794;29;20619;-83
2024/03/30 05:28:44;;;;;;;37.23;6.70;;;;;;;10.08;95.76;96319.22;4049120;29;21279;-82
2024/03/30 05:30:47;;;;;;;30.60;6.17;;;;;;;10.10;95.19;96321.69;4079150;29;21226;-82
2024/03/30 05:32:50;;;;;;;35.60;9.57;;;;;;;10.12;95.62;96322.38;4065379;29;21462;-82
2024/03/30 05:34:51;;;;;;;22.57;6.30;;;;;;;10.16;95.17;96326.31;4076917;29;20618;-82
2024/03/30 05:36:54;;;;;;;31.00;7.13;;;;;;;10.18;95.68;96320.00;4082649;29;20629;-82
2024/03/30 05:38:55;;;;;;;42.93;7.53;;;;;;;10.23;94.97;96322.97;4049119;29;20715;-82
2024/03/30 05:40:59;;;;;;;33.30;7.20;;;;;;;10.29;95.05;96321.59;4068426;29;20631;-83
2024/03/30 05:43:01;;;;;;;22.57;6.40;;;;;;;10.33;95.36;96323.75;4083987;29;20649;-82
2024/03/30 05:45:05;;;;;;;35.67;6.63;;;;;;;10.40;94.52;96324.78;4083645;29;20647;-82
2024/03/30 05:47:07;;;;;;;32.40;6.10;;;;;;;10.47;94.55;96310.22;4049965;29;21008;-81
2024/03/30 05:49:09;;;;;;;30.00;7.30;;;;;;;10.54;95.92;96317.28;4053172;29;21113;-82
2024/03/30 05:51:10;;;;;;;32.27;6.57;;;;;;;10.67;96.08;96327.34;4067453;29;20639;-82
2024/03/30 05:53:11;;;;;;;27.70;6.63;;;;;;;10.76;94.26;96319.44;4056310;29;20624;-83
2024/03/30 05:55:14;;;;;;;28.40;6.30;;;;;;;10.85;94.42;96322.00;4073818;29;20681;-81
2024/03/30 05:57:16;;;;;;;28.90;7.27;;;;;;;10.95;95.58;96320.13;4076381;29;20680;-82
2024/03/30 05:59:19;;;;;;;35.17;5.93;;;;;;;11.05;95.00;96327.84;4048894;29;21237;-82
2024/03/30 06:01:20;;;;;;;32.83;6.60;;;;;;;11.15;93.16;96332.00;4079249;29;20630;-82
2024/03/30 06:03:22;;;;;;;35.50;7.20;;;;;;;11.27;93.92;96336.03;4032754;29;20636;-82
2024/03/30 06:05:23;;;;;;;28.83;6.80;;;;;;;11.36;92.86;96332.50;4088360;29;20676;-82
2024/03/30 06:07:26;;;;;;;33.00;6.17;;;;;;;11.46;92.68;96330.63;4083287;29;20622;-83
2024/03/30 06:09:27;;;;;;;23.93;5.30;;;;;;;11.57;93.09;96330.41;4079338;29;21020;-82
2024/03/30 06:11:31;;;;;;;39.60;7.77;;;;;;;11.70;90.96;96326.41;4063608;29;20680;-83
2024/03/30 06:13:33;;;;;;;31.33;8.10;;;;;;;11.77;90.76;96327.41;4048171;29;20671;-82
2024/03/30 06:15:35;;;;;;;33.60;6.37;;;;;;;11.82;91.04;96335.63;4066333;29;21056;-82
2024/03/30 06:17:37;;;;;;;33.50;6.70;;;;;;;11.92;90.60;96331.06;4057968;28;20612;-82
2024/03/30 06:19:40;;;;;;;30.77;6.27;;;;;;;11.97;90.94;96329.66;4080294;29;21000;-82
2024/03/30 06:21:41;;;;;;;38.13;6.90;;;;;;;12.05;90.31;96328.88;4067797;29;20623;-82
2024/03/30 06:23:44;;;;;;;40.33;7.33;;;;;;;12.10;89.40;96337.84;4036656;29;20632;-82
2024/03/30 06:25:45;;;;;;;24.87;5.50;;;;;;;12.22;89.12;96339.22;4051987;29;20636;-82
2024/03/30 06:27:47;;;;;;;39.57;9.07;;;;;;;12.35;89.94;96339.59;4075733;29;20985;-82
2024/03/30 06:29:50;;;;;;;28.23;6.40;;;;;;;12.46;91.40;96332.28;4063559;29;20773;-82
2024/03/30 06:31:51;;;;;;;29.63;6.50;;;;;;;12.57;89.76;96334.59;4065331;29;20647;-83
2024/03/30 06:33:53;;;;;;;37.07;9.33;;;;;;;12.64;89.68;96324.31;4079778;28;20643;-82
2024/03/30 06:35:55;;;;;;;36.50;6.90;;;;;;;12.66;87.36;96332.81;4061707;29;20652;-82
2024/03/30 06:37:57;;;;;;;33.77;7.57;;;;;;;12.67;87.23;96327.41;4063761;29;20627;-83
2024/03/30 06:44:38;;;;;;;45.27;8.23;;;;;;;12.97;87.72;96332.88;4079867;29;20618;-82
2024/03/30 06:46:42;;;;;;;33.43;7.90;;;;;;;13.06;87.84;96336.34;4050194;29;20704;-83
2024/03/30 06:48:45;;;;;;;29.57;6.57;;;;;;;13.18;88.88;96335.84;4067028;29;20655;-82
2024/03/30 06:50:46;;;;;;;33.60;6.80;;;;;;;13.27;87.42;96338.28;4064903;29;20627;-82
2024/03/30 06:52:49;;;;;;;32.33;6.53;;;;;;;13.34;87.34;96336.66;4058304;29;20635;-82
2024/03/30 06:54:50;;;;;;;29.03;7.53;;;;;;;13.44;86.77;96339.09;4061496;29;20624;-82
2024/03/30 06:56:52;;;;;;;24.10;6.40;;;;;;;13.46;85.97;96345.03;4066912;29;20659;-82
2024/03/30 06:58:53;;;;;;;27.10;6.97;;;;;;;13.54;86.58;96335.34;4050425;29;21210;-82
2024/03/30 07:00:55;;;;;;;28.10;8.00;;;;;;;13.65;86.52;96341.06;4059674;29;20645;-83
2024/03/30 07:02:59;;;;;;;26.07;7.07;;;;;;;13.80;86.25;96346.44;4066390;29;20628;-83
2024/03/30 07:05:01;;;;;;;25.90;6.93;;;;;;;13.89;86.09;96343.66;4051715;29;21264;-83
2024/03/30 07:07:03;;;;;;;29.67;6.40;;;;;;;14.02;86.81;96343.91;4066602;29;20627;-82
2024/03/30 07:09:06;;;;;;;28.13;6.40;;;;;;;14.15;87.12;96341.63;4077531;29;20663;-82
2024/03/30 07:11:07;;;;;;;21.50;7.10;;;;;;;14.22;86.01;96345.19;4053559;29;20712;-83
2024/03/30 07:13:10;;;;;;;30.83;7.47;;;;;;;14.24;86.10;96333.56;4034767;29;20638;-83
2024/03/30 07:15:11;;;;;;;29.43;7.80;;;;;;;14.24;86.27;96333.56;4048604;29;20625;-82
2024/03/30 07:17:13;;;;;;;30.23;6.33;;;;;;;14.22;86.11;96334.69;4048911;29;20645;-82
2024/03/30 07:19:16;;;;;;;32.47;6.53;;;;;;;14.19;86.18;96329.78;4076297;29;20723;-83
2024/03/30 07:21:18;;;;;;;27.67;6.73;;;;;;;14.16;86.73;96323.09;4077866;29;20618;-82
2024/03/30 07:23:20;;;;;;;24.87;6.10;;;;;;;14.14;86.31;96313.78;4061152;29;20644;-83
2024/03/30 07:25:22;;;;;;;27.83;6.70;;;;;;;14.14;85.93;96313.78;4037632;29;20629;-83
2024/03/30 07:27:24;;;;;;;30.57;6.00;;;;;;;14.12;86.68;96312.28;4040826;29;20637;-82
2024/03/30 07:29:28;;;;;;;23.13;6.77;;;;;;;14.11;86.95;96313.28;4078206;29;20632;-82
2024/03/30 07:31:29;;;;;;;28.33;7.53;;;;;;;14.03;87.05;96303.63;4062109;29;20632;-82
2024/03/30 07:33:32;;;;;;;34.77;10.27;;;;;;;14.02;87.77;96312.47;4081313;28;20708;-82
2024/03/30 07:35:35;;;;;;;39.67;13.47;;;;;;;14.01;87.14;96291.66;4082094;28;21175;-82
2024/03/30 07:37:38;;;;;;;42.10;14.53;;;;;;;14.02;87.57;96288.88;4062385;29;21029;-82
2024/03/30 07:39:39;;;;;;;33.67;11.03;;;;;;;14.03;88.16;96280.03;4066506;29;20653;-82
2024/03/30 07:41:42;;;;;;;34.63;8.87;;;;;;;14.02;88.68;96267.09;4067611;29;20632;-82
2024/03/30 07:43:44;;;;;;;33.53;6.00;;;;;;;14.00;88.54;96272.50;4066170;29;21217;-81
2024/03/30 07:45:45;;;;;;;34.43;8.63;;;;;;;14.01;87.51;96266.28;4057372;29;20621;-83
2024/03/30 07:47:48;;;;;;;31.20;9.70;;;;;;;14.03;88.90;96260.88;4077320;29;20671;-82
2024/03/30 07:49:49;;;;;;;29.80;8.83;;;;;;;14.03;89.07;96261.69;4048781;29;21304;-83
2024/03/30 07:51:52;;;;;;;25.83;6.97;;;;;;;14.03;88.55;96263.50;4053717;29;20694;-83
2024/03/30 07:53:54;;;;;;;26.50;5.97;;;;;;;14.04;87.90;96257.25;4066283;29;20639;-82
2024/03/30 07:55:56;;;;;;;23.70;5.43;;;;;;;14.05;87.66;96266.78;4062616;29;20646;-83
2024/03/30 07:57:57;;;;;;;30.07;5.73;;;;;;;14.02;86.67;96273.16;4048054;29;20709;-82
2024/03/30 08:00:00;;;;;;;27.37;6.03;;;;;;;13.99;85.61;96273.47;4076343;28;20696;-82
2024/03/30 08:02:02;;;;;;;18.50;4.80;;;;;;;13.94;83.95;96288.91;4051467;29;21181;-82
2024/03/30 08:04:04;;;;;;;22.63;5.57;;;;;;;13.88;84.23;96289.59;4072172;29;21200;-82
2024/03/30 08:06:06;;;;;;;25.13;6.63;;;;;;;13.84;84.61;96297.94;4051372;29;21181;-83
2024/03/30 08:08:10;;;;;;;28.20;7.67;;;;;;;13.85;84.91;96299.59;4061441;29;20643;-83
2024/03/30 08:10:11;;;;;;;28.83;8.10;;;;;;;13.84;84.30;96301.38;4062038;29;20630;-82
2024/03/30 08:12:14;;;;;;;23.83;5.90;;;;;;;13.84;84.34;96304.00;4066595;29;20624;-82
2024/03/30 08:14:16;;;;;;;27.03;5.80;;;;;;;13.90;84.37;96305.13;4049238;29;20740;-82
2024/03/30 08:16:18;;;;;;;21.23;5.10;;;;;;;13.93;85.10;96305.63;4041758;29;20668;-82
2024/03/30 08:18:20;;;;;;;20.70;5.80;;;;;;;13.96;84.99;96300.03;4066239;29;20641;-82
2024/03/30 08:20:22;;;;;;;16.60;5.23;;;;;;;14.00;85.39;96298.72;4080740;29;21013;-82
2024/03/30 08:22:24;;;;;;;24.53;5.00;;;;;;;14.03;86.25;96295.75;4063253;28;21076;-81
2024/03/30 08:24:27;;;;;;;18.60;6.10;;;;;;;14.08;85.89;96293.47;4076843;29;20720;-82
2024/03/30 08:26:28;;;;;;;18.00;5.07;;;;;;;14.12;85.55;96302.63;4064705;29;20705;-83
2024/03/30 08:28:31;;;;;;;24.23;5.00;;;;;;;14.14;84.43;96293.59;4064552;29;20656;-83
2024/03/30 08:30:33;;;;;;;27.50;5.70;;;;;;;14.17;85.26;96292.44;4059347;29;20633;-82
2024/03/30 08:32:36;;;;;;;23.97;6.13;;;;;;;14.18;85.71;96291.47;4078415;29;20689;-83
2024/03/30 08:34:37;;;;;;;27.97;6.07;;;;;;;14.18;85.76;96297.53;4071541;29;20628;-82
2024/03/30 08:36:39;;;;;;;29.27;5.90;;;;;;;14.18;85.61;96296.72;4080975;29;20667;-82
2024/03/30 08:38:41;;;;;;;23.43;6.00;;;;;;;14.17;85.05;96295.88;4057243;29;20983;-82
2024/03/30 08:40:44;;;;;;;27.80;6.70;;;;;;;14.18;85.89;96296.72;4088707;28;20628;-83
2024/03/30 08:42:45;;;;;;;27.23;7.20;;;;;;;14.20;85.35;96294.72;4078041;29;20641;-82
2024/03/30 08:44:48;;;;;;;24.67;6.60;;;;;;;14.20;87.62;96292.91;4082525;29;20662;-82
2024/03/30 08:46:49;;;;;;;20.87;6.10;;;;;;;14.25;87.73;96300.28;4071905;29;20628;-83
2024/03/30 08:49:02;;;;;;;20.67;5.17;;;;;;;14.28;86.90;96299.94;4074065;29;20715;-83
2024/03/30 08:51:04;;;;;;;22.53;5.47;;;;;;;14.31;87.49;96296.97;4093235;28;21198;-82
2024/03/30 08:53:08;;;;;;;25.27;5.63;;;;;;;14.35;87.70;96296.47;4068954;28;20984;-82
2024/03/30 08:55:09;;;;;;;17.03;5.40;;;;;;;14.39;86.60;96289.09;4056491;29;20629;-82
2024/03/30 08:57:13;;;;;;;29.70;6.17;;;;;;;14.41;86.50;96293.16;4063774;29;21027;-82
2024/03/30 08:59:14;;;;;;;25.10;5.97;;;;;;;14.44;86.78;96292.81;4078272;28;21228;-82
2024/03/30 09:01:17;;;;;;;25.27;5.50;;;;;;;14.46;86.41;96292.63;4059889;29;20618;-84
2024/03/30 09:03:18;;;;;;;24.80;7.17;;;;;;;14.49;87.41;96289.66;4046498;29;20685;-82
2024/03/30 09:05:20;;;;;;;25.60;5.63;;;;;;;14.52;86.15;96289.31;4082811;29;20658;-82
2024/03/30 09:07:21;;;;;;;27.00;6.30;;;;;;;14.54;86.75;96292.59;4064390;29;20668;-83
2024/03/30 09:09:24;;;;;;;15.07;5.13;;;;;;;14.55;86.50;96291.59;4065725;29;20658;-83
2024/03/30 09:11:25;;;;;;;20.73;5.90;;;;;;;14.58;85.50;96292.06;4075821;29;20639;-83
2024/03/30 09:13:27;;;;;;;20.60;5.30;;;;;;;14.60;86.43;96292.72;4073179;29;20737;-83
2024/03/30 09:15:30;;;;;;;22.67;6.73;;;;;;;14.60;86.16;96293.53;4074242;29;20716;-82
2024/03/30 09:17:31;;;;;;;25.00;8.20;;;;;;;14.63;86.66;96301.06;4043914;29;20635;-82
2024/03/30 09:19:33;;;;;;;30.03;8.43;;;;;;;14.65;85.57;96303.50;4064417;29;20634;-82
2024/03/30 09:21:35;;;;;;;31.00;8.20;;;;;;;14.65;86.11;96287.78;4054138;29;20639;-83
2024/03/30 09:23:37;;;;;;;27.50;6.37;;;;;;;14.66;87.29;96286.78;4078469;29;20620;-83
2024/03/30 09:25:38;;;;;;;19.40;5.93;;;;;;;14.66;86.52;96295.47;4080190;29;21076;-82
2024/03/30 09:27:41;;;;;;;27.20;6.70;;;;;;;14.70;86.09;96295.94;4056113;29;20622;-82
2024/03/30 09:29:44;;;;;;;28.77;8.60;;;;;;;14.71;86.04;96295.75;4077405;29;20628;-83
2024/03/30 09:31:46;;;;;;;22.37;6.43;;;;;;;14.73;87.73;96295.59;4068115;29;21324;-83
2024/03/30 09:33:47;;;;;;;27.40;7.53;;;;;;;14.72;87.28;96291.34;4083904;28;20637;-82
2024/03/30 09:35:51;;;;;;;24.47;6.30;;;;;;;14.72;86.45;96283.47;4077024;28;20630;-82
2024/03/30 09:37:53;;;;;;;21.43;6.90;;;;;;;14.70;85.64;96275.78;4082627;28;21068;-83